Alton, TX

10:41 AM CDT on March 31, 2015 (GMT -0500)
Val's Kountry Corral | | Change Station
CLOSE
Current Station
Personal Weather Station
Location: Mission, TX
Elevation: 135 ft
Nearby Weather Stations

Elev 135 ft 26.21 °N, 98.37 °W | Updated 11 minutes ago

Mostly Cloudy
Mostly Cloudy
79.3 °F
Feels Like 82 °F
N
4.7
Wind Variable Wind from East

Today
High -- | Low -- °F
--% Chance of Precip.
Yesterday
High -- | Low -- °F
Precip. -- in
7:25 AM 7:49 PM
Waxing Gibbous, 87% visible
Pressure 30.07 in
Visibility 10.0 miles
Clouds Scattered Clouds 1600 ft
Heat Index 82 °F
Dew Point 71 °F
Humidity 76%
Rainfall 0.00 in
Snow Depth Not available.
UV 4 out of 12
Pollen 10.10 out of 12
Air Quality Not available.
Flu Activity Not available.
SPECI KMFE 311529Z 15012KT 10SM SCT016 25/19 A3007 RMK AO2 T02500194

More Conditions Fewer Conditions

Pressure 30.07 in
Visibility 10.0 miles
Clouds Scattered Clouds 1600 ft
Heat Index 82 °F
Dew Point 71 °F
Humidity 76%
Rainfall 0.00 in
Snow Depth Not available.
UV 4 out of 12
Pollen 10.10 out of 12
Air Quality Not available.
Flu Activity Not available.
SPECI KMFE 311529Z 15012KT 10SM SCT016 25/19 A3007 RMK AO2 T02500194

More Conditions Fewer Conditions

10-Day Weather Forecast

Almanac

Astronomy

Mar. 31, 2015 Rise Set
Actual Time
Civil Twilight
Nautical Twilight
Astronomical Twilight
Moon
Length of Visible Light
Length of Day
Tomorrow will be .
, % of the Moon is Illuminated

Today's Extremes

State Highs State Lows

Community

WunderPhotos

Upload Photos

1,809,781 photos uploaded!

WunderBlogs® & News

Nearby

Air Quality

  Air Quality AQ Index Pollutant
Not available.

Snow Depth

Station Depth Elevation

Earthquake Activity

City Distance Mag. Time & Date
Minimum magnitude displayed is 2.5.

Coastal Water Temperatures

Place Temperature

Stations

Nearby Weather Stations

Station Location Temp. Windchill Dew Point Humidity Wind Precip. Elev Updated Type